Time;durP1;ratioP1;P1;durP2;ratioP2;P2;SDS_P1;SDS_P2;PMS_P1;PMS_P2;Temp;Humidity;BMP_temperature;BMP_pressure;BME280_temperature;BME280_humidity;BME280_pressure;Samples;Min_cycle;Max_cycle;Signal;HPM_P1;HPM_P2
2023/02/28 00:05:41;;;;;;;14.5;8.2;;;;;;;0;73.2;99970;;;;
2023/02/28 00:15:41;;;;;;;14.5;8.2;;;;;;;0;73;99980;;;;
2023/02/28 00:26:41;;;;;;;12.8;7.6;;;;;;;-0.1;73.3;99990;;;;
2023/02/28 00:36:45;;;;;;;12.8;7.6;;;;;;;-0.2;73.7;100000;;;;
2023/02/28 00:47:41;;;;;;;12.8;7.6;;;;;;;-0.2;73.4;99990;;;;
2023/02/28 00:57:41;;;;;;;15.8;8.1;;;;;;;-0.4;73.2;99990;;;;
2023/02/28 01:08:41;;;;;;;15.8;8.1;;;;;;;-0.4;73;99980;;;;
2023/02/28 01:18:41;;;;;;;15.8;8.1;;;;;;;-0.6;73.3;99990;;;;
2023/02/28 01:28:41;;;;;;;11.6;6;;;;;;;-0.6;73.5;99990;;;;
2023/02/28 01:38:41;;;;;;;11.6;6;;;;;;;-0.7;73.6;99990;;;;
2023/02/28 01:49:41;;;;;;;11.6;6;;;;;;;-0.9;73.7;99980;;;;
2023/02/28 02:00:42;;;;;;;11.6;6.4;;;;;;;-1.2;73.7;99980;;;;
2023/02/28 02:10:41;;;;;;;11.6;6.4;;;;;;;-1.5;74.3;99980;;;;
2023/02/28 02:21:41;;;;;;;11.6;6.4;;;;;;;-1.8;74.7;99970;;;;
2023/02/28 02:31:42;;;;;;;12.9;7.5;;;;;;;-1.9;74.4;99970;;;;
2023/02/28 02:42:42;;;;;;;12.9;7.5;;;;;;;-2;74.9;99970;;;;
2023/02/28 02:53:41;;;;;;;10.5;6;;;;;;;-2.2;75.8;99960;;;;
2023/02/28 03:03:41;;;;;;;10.5;6;;;;;;;-2.4;76.6;99960;;;;
2023/02/28 03:14:43;;;;;;;10.5;6;;;;;;;-2.6;78;99960;;;;
2023/02/28 03:25:41;;;;;;;10.8;5.4;;;;;;;-2.8;77.9;99970;;;;
2023/02/28 03:36:43;;;;;;;10.8;5.4;;;;;;;-2.9;78.2;99970;;;;
2023/02/28 03:46:42;;;;;;;10.8;5.4;;;;;;;-3.1;78.4;99980;;;;
2023/02/28 03:57:41;;;;;;;6.9;4.8;;;;;;;-3.2;78.8;99990;;;;
2023/02/28 04:08:41;;;;;;;6.9;4.8;;;;;;;-3.4;79.1;100000;;;;
2023/02/28 04:19:41;;;;;;;6.9;4.8;;;;;;;-3.5;79.8;100010;;;;
2023/02/28 04:29:44;;;;;;;15.1;6.8;;;;;;;-3.5;80.5;100010;;;;
2023/02/28 04:40:41;;;;;;;15.1;6.8;;;;;;;-3.6;81.1;100010;;;;
2023/02/28 04:51:41;;;;;;;12;6.6;;;;;;;-3.7;81.1;100020;;;;
2023/02/28 05:01:42;;;;;;;12;6.6;;;;;;;-3.7;81.7;100020;;;;
2023/02/28 05:12:41;;;;;;;12;6.6;;;;;;;-3.7;81.8;100020;;;;
2023/02/28 05:22:41;;;;;;;10.6;6.5;;;;;;;-3.8;81.6;100030;;;;
2023/02/28 05:32:42;;;;;;;10.6;6.5;;;;;;;-3.8;81.4;100030;;;;
2023/02/28 05:43:41;;;;;;;10.6;6.5;;;;;;;-3.9;81.4;100050;;;;
2023/02/28 05:53:41;;;;;;;12.2;7.1;;;;;;;-3.9;81.5;100060;;;;
2023/02/28 06:04:41;;;;;;;12.2;7.1;;;;;;;-3.8;81.8;100060;;;;
2023/02/28 06:14:41;;;;;;;12.2;7.1;;;;;;;-3.7;82.2;100070;;;;
2023/02/28 06:25:41;;;;;;;12.7;7.7;;;;;;;-3.5;82.6;100090;;;;
2023/02/28 06:36:41;;;;;;;12.7;7.7;;;;;;;-3.3;82.3;100090;;;;
2023/02/28 06:47:41;;;;;;;12.7;7.7;;;;;;;-3.2;82.2;100090;;;;
2023/02/28 06:57:41;;;;;;;18.1;9.5;;;;;;;-2.9;82.1;100100;;;;
2023/02/28 07:07:44;;;;;;;18.1;9.5;;;;;;;-2.6;82;100110;;;;
2023/02/28 07:18:41;;;;;;;18.1;9.5;;;;;;;-2.1;81.9;100120;;;;
2023/02/28 07:28:42;;;;;;;13.6;8.2;;;;;;;-1.7;81.1;100120;;;;
2023/02/28 07:38:42;;;;;;;13.6;8.2;;;;;;;-1.4;80;100120;;;;
2023/02/28 07:48:41;;;;;;;13.6;8.2;;;;;;;-0.8;78.7;100130;;;;
2023/02/28 07:59:41;;;;;;;20.7;11.4;;;;;;;-0.2;77.8;100130;;;;
2023/02/28 08:09:41;;;;;;;20.7;11.4;;;;;;;0.1;74.8;100120;;;;
2023/02/28 08:19:41;;;;;;;20.7;11.4;;;;;;;0.4;72;100120;;;;
2023/02/28 08:29:41;;;;;;;24.4;12.1;;;;;;;0.6;71.4;100120;;;;
2023/02/28 08:39:41;;;;;;;24.4;12.1;;;;;;;1.2;67.9;100120;;;;
2023/02/28 08:50:41;;;;;;;24.4;12.1;;;;;;;2;64.2;100120;;;;
2023/02/28 09:00:42;;;;;;;12.3;6.9;;;;;;;2.2;61.7;100120;;;;
2023/02/28 09:11:42;;;;;;;12.3;6.9;;;;;;;2.2;60.3;100120;;;;
2023/02/28 09:22:41;;;;;;;9.8;5.4;;;;;;;2.2;59;100110;;;;
2023/02/28 09:33:41;;;;;;;9.8;5.4;;;;;;;2.2;58.8;100110;;;;
2023/02/28 09:44:41;;;;;;;9.8;5.4;;;;;;;2.1;59.7;100110;;;;
2023/02/28 09:54:42;;;;;;;10.1;5.6;;;;;;;2.1;57.4;100120;;;;
2023/02/28 10:04:41;;;;;;;10.1;5.6;;;;;;;2.2;57.6;100120;;;;
2023/02/28 10:14:41;;;;;;;10.1;5.6;;;;;;;2.3;57.9;100120;;;;
2023/02/28 10:25:41;;;;;;;10.1;5.5;;;;;;;2.4;58.7;100100;;;;
2023/02/28 10:35:42;;;;;;;10.1;5.5;;;;;;;2.5;57.7;100090;;;;
2023/02/28 10:46:41;;;;;;;10.1;5.5;;;;;;;2.8;56.8;100080;;;;
2023/02/28 10:57:41;;;;;;;8.8;5.7;;;;;;;2.6;56.9;100080;;;;
2023/02/28 11:08:41;;;;;;;8.8;5.7;;;;;;;2.7;58.3;100060;;;;
2023/02/28 11:18:42;;;;;;;8.8;5.7;;;;;;;2.8;57.7;100050;;;;
2023/02/28 11:28:41;;;;;;;9.5;5.8;;;;;;;3;57.8;100050;;;;
2023/02/28 11:39:41;;;;;;;9.5;5.8;;;;;;;2.7;57.1;100030;;;;
2023/02/28 11:49:42;;;;;;;9.5;5.8;;;;;;;3;57.4;100030;;;;
2023/02/28 11:59:41;;;;;;;9.7;5.5;;;;;;;3.2;57;100020;;;;
2023/02/28 12:10:41;;;;;;;9.7;5.5;;;;;;;3.2;56.6;100010;;;;
2023/02/28 12:20:41;;;;;;;10.2;6.3;;;;;;;3.5;56.1;100020;;;;
2023/02/28 12:30:41;;;;;;;10.2;6.3;;;;;;;3.5;56.2;100010;;;;
2023/02/28 12:41:42;;;;;;;10.2;6.3;;;;;;;3.7;56.8;100020;;;;
2023/02/28 12:52:41;;;;;;;9.5;5.9;;;;;;;3.8;56.9;100010;;;;
2023/02/28 13:03:41;;;;;;;9.5;5.9;;;;;;;3.4;56.6;100010;;;;
2023/02/28 13:14:42;;;;;;;9.5;5.9;;;;;;;3.7;57.1;100000;;;;
2023/02/28 13:25:42;;;;;;;10.1;5.2;;;;;;;3.9;56;99980;;;;
2023/02/28 13:36:42;;;;;;;10.1;5.2;;;;;;;3.7;56.7;99980;;;;
2023/02/28 13:46:41;;;;;;;10.1;5.2;;;;;;;3.8;56.8;99970;;;;
2023/02/28 13:57:41;;;;;;;13;7.2;;;;;;;3.9;56.1;99960;;;;
2023/02/28 14:07:41;;;;;;;13;7.2;;;;;;;3.8;56.8;99950;;;;
2023/02/28 14:18:41;;;;;;;13;7.2;;;;;;;3.7;56.9;99940;;;;
2023/02/28 14:28:42;;;;;;;10.5;6.2;;;;;;;3.6;56.7;99940;;;;
2023/02/28 14:38:42;;;;;;;10.5;6.2;;;;;;;3.8;57;99940;;;;
2023/02/28 14:48:42;;;;;;;10.5;6.2;;;;;;;3.6;57.7;99950;;;;
2023/02/28 14:59:41;;;;;;;10.4;5.8;;;;;;;3.6;58;99940;;;;
2023/02/28 15:10:42;;;;;;;10.4;5.8;;;;;;;3.2;59;99950;;;;
2023/02/28 15:20:41;;;;;;;18.3;8.9;;;;;;;3.2;59.3;99950;;;;
2023/02/28 15:31:42;;;;;;;18.3;8.9;;;;;;;2.7;60.4;99950;;;;
2023/02/28 15:42:43;;;;;;;18.3;8.9;;;;;;;2.4;61.5;99950;;;;
2023/02/28 15:52:41;;;;;;;16.6;9.9;;;;;;;2.1;62.6;99950;;;;
2023/02/28 16:02:41;;;;;;;16.6;9.9;;;;;;;1.9;63.3;99950;;;;
2023/02/28 16:12:41;;;;;;;16.6;9.9;;;;;;;1.5;64.7;99950;;;;
2023/02/28 16:22:42;;;;;;;20.6;11.4;;;;;;;1.2;65.4;99960;;;;
2023/02/28 16:32:42;;;;;;;20.6;11.4;;;;;;;0.8;66.4;99970;;;;
2023/02/28 16:42:42;;;;;;;20.6;11.4;;;;;;;0.4;66.9;99980;;;;
2023/02/28 16:53:42;;;;;;;17.3;9.6;;;;;;;0.1;68;99980;;;;
2023/02/28 17:04:42;;;;;;;17.3;9.6;;;;;;;-0.2;68.4;99990;;;;
2023/02/28 17:14:42;;;;;;;17.3;9.6;;;;;;;-0.4;69.9;99990;;;;
2023/02/28 17:25:52;;;;;;;20;10.1;;;;;;;-0.6;70.2;100000;;;;
2023/02/28 17:35:42;;;;;;;20;10.1;;;;;;;-0.8;70.5;100000;;;;
2023/02/28 17:46:42;;;;;;;20;10.1;;;;;;;-1.1;70.8;99990;;;;
2023/02/28 17:57:42;;;;;;;15.3;10;;;;;;;-1.3;72.1;99990;;;;
2023/02/28 18:08:42;;;;;;;15.3;10;;;;;;;-1.4;73.1;99990;;;;
2023/02/28 18:19:42;;;;;;;56.9;30.9;;;;;;;-1.5;73.7;99990;;;;
2023/02/28 18:29:42;;;;;;;56.9;30.9;;;;;;;-1.6;74.2;99990;;;;
2023/02/28 18:39:42;;;;;;;56.9;30.9;;;;;;;-1.7;74.9;99990;;;;
2023/02/28 18:49:42;;;;;;;40;21.3;;;;;;;-1.7;75.2;99990;;;;
2023/02/28 18:59:42;;;;;;;40;21.3;;;;;;;-1.9;74.9;99980;;;;
2023/02/28 19:10:42;;;;;;;40;21.3;;;;;;;-1.9;75.5;99980;;;;
2023/02/28 19:21:42;;;;;;;23.8;14.5;;;;;;;-2;76.1;99980;;;;
2023/02/28 19:31:42;;;;;;;23.8;14.5;;;;;;;-2.1;75.8;99980;;;;
2023/02/28 19:41:42;;;;;;;23.8;14.5;;;;;;;-2.2;75.9;99990;;;;
2023/02/28 19:52:42;;;;;;;34.9;18.7;;;;;;;-2.4;76;99990;;;;
2023/02/28 20:02:42;;;;;;;34.9;18.7;;;;;;;-2.6;76.4;99980;;;;
2023/02/28 20:13:42;;;;;;;34.9;18.7;;;;;;;-2.7;77;99980;;;;
2023/02/28 20:23:42;;;;;;;23.2;13.3;;;;;;;-2.8;78.3;99980;;;;
2023/02/28 20:33:42;;;;;;;23.2;13.3;;;;;;;-2.9;77.9;99990;;;;
2023/02/28 20:44:42;;;;;;;23.2;13.3;;;;;;;-3;78.2;99990;;;;
2023/02/28 20:54:42;;;;;;;26.3;16.6;;;;;;;-3.1;78.5;99990;;;;
2023/02/28 21:04:42;;;;;;;26.3;16.6;;;;;;;-3.2;79.4;99980;;;;
2023/02/28 21:14:42;;;;;;;26.3;16.6;;;;;;;-3.2;80.6;99960;;;;
2023/02/28 21:24:42;;;;;;;37.9;22.6;;;;;;;-3.2;80.6;99970;;;;
2023/02/28 21:35:42;;;;;;;37.9;22.6;;;;;;;-3.3;80.7;99980;;;;
2023/02/28 21:45:42;;;;;;;37.9;22.6;;;;;;;-3.4;80.8;99980;;;;
2023/02/28 21:56:42;;;;;;;38.5;20.2;;;;;;;-3.4;81.4;99980;;;;
2023/02/28 22:07:42;;;;;;;38.5;20.2;;;;;;;-3.4;82.4;99970;;;;
2023/02/28 22:18:42;;;;;;;31.2;18.7;;;;;;;-3.5;82.1;99980;;;;
2023/02/28 22:29:42;;;;;;;31.2;18.7;;;;;;;-3.6;82;99990;;;;
2023/02/28 22:39:42;;;;;;;31.2;18.7;;;;;;;-3.7;82.8;99990;;;;
2023/02/28 22:50:42;;;;;;;37.9;21.6;;;;;;;-3.6;83.1;99990;;;;
2023/02/28 23:00:42;;;;;;;37.9;21.6;;;;;;;-3.7;82.6;100000;;;;
2023/02/28 23:10:42;;;;;;;37.9;21.6;;;;;;;-3.8;82.3;100010;;;;
2023/02/28 23:20:42;;;;;;;23.3;14.2;;;;;;;-3.8;82.4;100010;;;;
2023/02/28 23:31:42;;;;;;;23.3;14.2;;;;;;;-4;82.5;100020;;;;
2023/02/28 23:41:42;;;;;;;23.3;14.2;;;;;;;-4;82.8;100020;;;;
2023/02/28 23:51:42;;;;;;;26.3;15.6;;;;;;;-4;82.9;100010;;;;
